sensor_id;sensor_type;location;lat;lon;timestamp;temperature;humidity
42201;DHT22;27869;51.442;7.540;2022-08-14T00:00:45;19.60;99.90
42201;DHT22;27869;51.442;7.540;2022-08-14T00:03:19;19.50;99.90
42201;DHT22;27869;51.442;7.540;2022-08-14T00:05:47;19.50;99.90
42201;DHT22;27869;51.442;7.540;2022-08-14T00:08:14;19.50;99.90
42201;DHT22;27869;51.442;7.540;2022-08-14T00:10:41;19.40;99.90
42201;DHT22;27869;51.442;7.540;2022-08-14T00:13:10;19.40;99.90
42201;DHT22;27869;51.442;7.540;2022-08-14T00:15:40;19.30;99.90
42201;DHT22;27869;51.442;7.540;2022-08-14T00:18:10;19.40;99.90
42201;DHT22;27869;51.442;7.540;2022-08-14T00:20:39;19.40;99.90
42201;DHT22;27869;51.442;7.540;2022-08-14T00:23:07;19.30;99.90
42201;DHT22;27869;51.442;7.540;2022-08-14T00:25:35;19.30;99.90
42201;DHT22;27869;51.442;7.540;2022-08-14T00:28:02;19.30;99.90
42201;DHT22;27869;51.442;7.540;2022-08-14T00:30:29;19.30;99.90
42201;DHT22;27869;51.442;7.540;2022-08-14T00:32:57;19.30;99.90
42201;DHT22;27869;51.442;7.540;2022-08-14T00:35:24;19.30;99.90
42201;DHT22;27869;51.442;7.540;2022-08-14T00:37:51;19.20;99.90
42201;DHT22;27869;51.442;7.540;2022-08-14T00:40:19;19.20;99.90
42201;DHT22;27869;51.442;7.540;2022-08-14T00:42:46;19.20;99.90
42201;DHT22;27869;51.442;7.540;2022-08-14T00:45:15;19.20;99.90
42201;DHT22;27869;51.442;7.540;2022-08-14T00:47:42;19.10;99.90
42201;DHT22;27869;51.442;7.540;2022-08-14T00:50:14;19.00;99.90
42201;DHT22;27869;51.442;7.540;2022-08-14T00:52:42;19.00;99.90
42201;DHT22;27869;51.442;7.540;2022-08-14T00:55:10;19.00;99.90
42201;DHT22;27869;51.442;7.540;2022-08-14T00:57:39;18.90;99.90
42201;DHT22;27869;51.442;7.540;2022-08-14T01:00:09;18.90;99.90
42201;DHT22;27869;51.442;7.540;2022-08-14T01:02:38;18.90;99.90
42201;DHT22;27869;51.442;7.540;2022-08-14T01:05:06;18.90;99.90
42201;DHT22;27869;51.442;7.540;2022-08-14T01:07:50;18.80;99.90
42201;DHT22;27869;51.442;7.540;2022-08-14T01:10:19;18.80;99.90
42201;DHT22;27869;51.442;7.540;2022-08-14T01:12:47;18.80;99.90
42201;DHT22;27869;51.442;7.540;2022-08-14T01:15:15;18.80;99.90
42201;DHT22;27869;51.442;7.540;2022-08-14T01:17:45;18.80;99.90
42201;DHT22;27869;51.442;7.540;2022-08-14T01:20:30;18.80;99.90
42201;DHT22;27869;51.442;7.540;2022-08-14T01:23:17;18.70;99.90
42201;DHT22;27869;51.442;7.540;2022-08-14T01:25:44;18.70;99.90
42201;DHT22;27869;51.442;7.540;2022-08-14T01:28:11;18.60;99.90
42201;DHT22;27869;51.442;7.540;2022-08-14T01:30:39;18.50;99.90
42201;DHT22;27869;51.442;7.540;2022-08-14T01:33:07;18.50;99.90
42201;DHT22;27869;51.442;7.540;2022-08-14T01:35:36;18.40;99.90
42201;DHT22;27869;51.442;7.540;2022-08-14T01:38:12;18.40;99.90
42201;DHT22;27869;51.442;7.540;2022-08-14T01:40:41;18.40;99.90
42201;DHT22;27869;51.442;7.540;2022-08-14T01:43:09;18.30;99.90
42201;DHT22;27869;51.442;7.540;2022-08-14T01:45:41;18.30;99.90
42201;DHT22;27869;51.442;7.540;2022-08-14T01:48:09;18.30;99.90
42201;DHT22;27869;51.442;7.540;2022-08-14T01:50:36;18.20;99.90
42201;DHT22;27869;51.442;7.540;2022-08-14T01:53:03;18.20;99.90
42201;DHT22;27869;51.442;7.540;2022-08-14T01:55:30;18.20;99.90
42201;DHT22;27869;51.442;7.540;2022-08-14T01:57:59;18.20;99.90
42201;DHT22;27869;51.442;7.540;2022-08-14T02:00:27;18.10;99.90
42201;DHT22;27869;51.442;7.540;2022-08-14T02:02:54;18.10;99.90
42201;DHT22;27869;51.442;7.540;2022-08-14T02:05:24;18.10;99.90
42201;DHT22;27869;51.442;7.540;2022-08-14T02:07:54;18.10;99.90
42201;DHT22;27869;51.442;7.540;2022-08-14T02:10:21;18.00;99.90
42201;DHT22;27869;51.442;7.540;2022-08-14T02:12:48;18.00;99.90
42201;DHT22;27869;51.442;7.540;2022-08-14T02:15:16;18.00;99.90
42201;DHT22;27869;51.442;7.540;2022-08-14T02:17:46;18.00;99.90
42201;DHT22;27869;51.442;7.540;2022-08-14T02:20:13;17.90;99.90
42201;DHT22;27869;51.442;7.540;2022-08-14T02:22:42;17.90;99.90
42201;DHT22;27869;51.442;7.540;2022-08-14T02:25:09;17.90;99.90
42201;DHT22;27869;51.442;7.540;2022-08-14T02:27:36;17.90;99.90
42201;DHT22;27869;51.442;7.540;2022-08-14T02:30:07;17.90;99.90
42201;DHT22;27869;51.442;7.540;2022-08-14T02:32:35;17.80;99.90
42201;DHT22;27869;51.442;7.540;2022-08-14T02:35:04;17.80;99.90
42201;DHT22;27869;51.442;7.540;2022-08-14T02:37:43;17.80;99.90
42201;DHT22;27869;51.442;7.540;2022-08-14T02:40:11;17.70;99.90
42201;DHT22;27869;51.442;7.540;2022-08-14T02:42:39;17.70;99.90
42201;DHT22;27869;51.442;7.540;2022-08-14T02:45:06;17.70;99.90
42201;DHT22;27869;51.442;7.540;2022-08-14T02:47:35;17.70;99.90
42201;DHT22;27869;51.442;7.540;2022-08-14T02:50:03;17.60;99.90
42201;DHT22;27869;51.442;7.540;2022-08-14T02:52:30;17.60;99.90
42201;DHT22;27869;51.442;7.540;2022-08-14T02:54:57;17.60;99.90
42201;DHT22;27869;51.442;7.540;2022-08-14T02:57:25;17.60;99.90
42201;DHT22;27869;51.442;7.540;2022-08-14T02:59:52;17.60;99.90
42201;DHT22;27869;51.442;7.540;2022-08-14T03:02:20;17.50;99.90
42201;DHT22;27869;51.442;7.540;2022-08-14T03:04:48;17.50;99.90
42201;DHT22;27869;51.442;7.540;2022-08-14T03:07:15;17.50;99.90
42201;DHT22;27869;51.442;7.540;2022-08-14T03:09:43;17.50;99.90
42201;DHT22;27869;51.442;7.540;2022-08-14T03:12:10;17.50;99.90
42201;DHT22;27869;51.442;7.540;2022-08-14T03:14:37;17.40;99.90
42201;DHT22;27869;51.442;7.540;2022-08-14T03:17:07;17.40;99.90
42201;DHT22;27869;51.442;7.540;2022-08-14T03:19:35;17.40;99.90
42201;DHT22;27869;51.442;7.540;2022-08-14T03:22:03;17.40;99.90
42201;DHT22;27869;51.442;7.540;2022-08-14T03:24:30;17.30;99.90
42201;DHT22;27869;51.442;7.540;2022-08-14T03:26:57;17.30;99.90
42201;DHT22;27869;51.442;7.540;2022-08-14T03:29:25;17.30;99.90
42201;DHT22;27869;51.442;7.540;2022-08-14T03:31:53;17.30;99.90
42201;DHT22;27869;51.442;7.540;2022-08-14T03:34:21;17.30;99.90
42201;DHT22;27869;51.442;7.540;2022-08-14T03:36:48;17.20;99.90
42201;DHT22;27869;51.442;7.540;2022-08-14T03:39:20;17.20;99.90
42201;DHT22;27869;51.442;7.540;2022-08-14T03:41:48;17.20;99.90
42201;DHT22;27869;51.442;7.540;2022-08-14T03:44:15;17.20;99.90
42201;DHT22;27869;51.442;7.540;2022-08-14T03:46:42;17.10;99.90
42201;DHT22;27869;51.442;7.540;2022-08-14T03:49:09;17.10;99.90
42201;DHT22;27869;51.442;7.540;2022-08-14T03:51:37;17.10;99.90
42201;DHT22;27869;51.442;7.540;2022-08-14T03:54:05;17.10;99.90
42201;DHT22;27869;51.442;7.540;2022-08-14T03:56:35;17.00;99.90
42201;DHT22;27869;51.442;7.540;2022-08-14T03:59:04;17.00;99.90
42201;DHT22;27869;51.442;7.540;2022-08-14T04:01:36;17.00;99.90
42201;DHT22;27869;51.442;7.540;2022-08-14T04:04:06;17.00;99.90
42201;DHT22;27869;51.442;7.540;2022-08-14T04:06:36;16.90;99.90
42201;DHT22;27869;51.442;7.540;2022-08-14T04:09:04;16.90;99.90
42201;DHT22;27869;51.442;7.540;2022-08-14T04:11:31;16.80;99.90
42201;DHT22;27869;51.442;7.540;2022-08-14T04:14:01;16.90;99.90
42201;DHT22;27869;51.442;7.540;2022-08-14T04:16:28;16.90;99.90
42201;DHT22;27869;51.442;7.540;2022-08-14T04:18:56;16.90;99.90
42201;DHT22;27869;51.442;7.540;2022-08-14T04:21:25;16.90;99.90
42201;DHT22;27869;51.442;7.540;2022-08-14T04:23:55;16.90;99.90
42201;DHT22;27869;51.442;7.540;2022-08-14T04:26:24;16.80;99.90
42201;DHT22;27869;51.442;7.540;2022-08-14T04:28:53;16.80;99.90
42201;DHT22;27869;51.442;7.540;2022-08-14T04:31:22;16.80;99.90
42201;DHT22;27869;51.442;7.540;2022-08-14T04:33:49;16.80;99.90
42201;DHT22;27869;51.442;7.540;2022-08-14T04:36:17;16.80;99.90
42201;DHT22;27869;51.442;7.540;2022-08-14T04:38:44;16.70;99.90
42201;DHT22;27869;51.442;7.540;2022-08-14T04:41:28;16.70;99.90
42201;DHT22;27869;51.442;7.540;2022-08-14T04:44:12;16.70;99.90
42201;DHT22;27869;51.442;7.540;2022-08-14T04:46:41;16.80;99.90
42201;DHT22;27869;51.442;7.540;2022-08-14T04:49:30;16.80;99.90
42201;DHT22;27869;51.442;7.540;2022-08-14T04:51:56;16.80;99.90
42201;DHT22;27869;51.442;7.540;2022-08-14T04:54:25;16.70;99.90
42201;DHT22;27869;51.442;7.540;2022-08-14T04:56:52;16.80;99.90
42201;DHT22;27869;51.442;7.540;2022-08-14T04:59:20;16.80;99.90
42201;DHT22;27869;51.442;7.540;2022-08-14T05:01:49;16.80;99.90
42201;DHT22;27869;51.442;7.540;2022-08-14T05:04:18;16.80;99.90
42201;DHT22;27869;51.442;7.540;2022-08-14T05:06:45;16.80;99.90
42201;DHT22;27869;51.442;7.540;2022-08-14T05:09:12;16.80;99.90
42201;DHT22;27869;51.442;7.540;2022-08-14T05:11:39;16.80;99.90
42201;DHT22;27869;51.442;7.540;2022-08-14T05:14:06;16.80;99.90
42201;DHT22;27869;51.442;7.540;2022-08-14T05:16:33;16.80;99.90
42201;DHT22;27869;51.442;7.540;2022-08-14T05:19:01;16.80;99.90
42201;DHT22;27869;51.442;7.540;2022-08-14T05:21:29;16.80;99.90
42201;DHT22;27869;51.442;7.540;2022-08-14T05:23:56;16.90;99.90
42201;DHT22;27869;51.442;7.540;2022-08-14T05:26:23;16.90;99.90
42201;DHT22;27869;51.442;7.540;2022-08-14T05:28:50;16.90;99.90
42201;DHT22;27869;51.442;7.540;2022-08-14T05:31:17;16.90;99.90
42201;DHT22;27869;51.442;7.540;2022-08-14T05:33:44;17.00;99.90
42201;DHT22;27869;51.442;7.540;2022-08-14T05:36:13;17.00;99.90
42201;DHT22;27869;51.442;7.540;2022-08-14T05:38:42;17.10;99.90
42201;DHT22;27869;51.442;7.540;2022-08-14T05:41:11;17.10;99.90
42201;DHT22;27869;51.442;7.540;2022-08-14T05:43:39;17.20;99.90
42201;DHT22;27869;51.442;7.540;2022-08-14T05:46:09;17.20;99.90
42201;DHT22;27869;51.442;7.540;2022-08-14T05:48:36;17.30;99.90
42201;DHT22;27869;51.442;7.540;2022-08-14T05:51:03;17.30;99.90
42201;DHT22;27869;51.442;7.540;2022-08-14T05:53:31;17.40;99.90
42201;DHT22;27869;51.442;7.540;2022-08-14T05:55:59;17.50;99.90
42201;DHT22;27869;51.442;7.540;2022-08-14T05:58:26;17.50;99.90
42201;DHT22;27869;51.442;7.540;2022-08-14T06:00:53;17.60;99.90
42201;DHT22;27869;51.442;7.540;2022-08-14T06:03:22;17.70;99.90
42201;DHT22;27869;51.442;7.540;2022-08-14T06:05:50;17.80;99.90
42201;DHT22;27869;51.442;7.540;2022-08-14T06:08:19;17.90;99.90
42201;DHT22;27869;51.442;7.540;2022-08-14T06:10:49;18.00;99.90
42201;DHT22;27869;51.442;7.540;2022-08-14T06:13:17;18.20;99.90
42201;DHT22;27869;51.442;7.540;2022-08-14T06:15:44;18.30;99.90
42201;DHT22;27869;51.442;7.540;2022-08-14T06:18:11;18.50;99.90
42201;DHT22;27869;51.442;7.540;2022-08-14T06:20:38;18.50;99.90
42201;DHT22;27869;51.442;7.540;2022-08-14T06:23:05;18.60;99.90
42201;DHT22;27869;51.442;7.540;2022-08-14T06:25:33;18.80;99.90
42201;DHT22;27869;51.442;7.540;2022-08-14T06:28:01;18.90;99.90
42201;DHT22;27869;51.442;7.540;2022-08-14T06:30:32;19.10;99.90
42201;DHT22;27869;51.442;7.540;2022-08-14T06:32:59;19.20;99.90
42201;DHT22;27869;51.442;7.540;2022-08-14T06:35:26;19.40;99.90
42201;DHT22;27869;51.442;7.540;2022-08-14T06:37:54;19.50;99.90
42201;DHT22;27869;51.442;7.540;2022-08-14T06:40:24;19.70;99.90
42201;DHT22;27869;51.442;7.540;2022-08-14T06:42:52;19.80;99.90
42201;DHT22;27869;51.442;7.540;2022-08-14T06:45:20;20.00;99.90
42201;DHT22;27869;51.442;7.540;2022-08-14T06:47:47;20.10;99.90
42201;DHT22;27869;51.442;7.540;2022-08-14T06:50:16;20.30;99.90
42201;DHT22;27869;51.442;7.540;2022-08-14T06:52:43;20.40;99.90
42201;DHT22;27869;51.442;7.540;2022-08-14T06:55:12;20.60;99.90
42201;DHT22;27869;51.442;7.540;2022-08-14T06:57:41;20.70;99.90
42201;DHT22;27869;51.442;7.540;2022-08-14T07:00:11;20.90;99.90
42201;DHT22;27869;51.442;7.540;2022-08-14T07:02:40;21.00;99.90
42201;DHT22;27869;51.442;7.540;2022-08-14T07:05:25;21.20;99.90
42201;DHT22;27869;51.442;7.540;2022-08-14T07:08:24;21.40;99.90
42201;DHT22;27869;51.442;7.540;2022-08-14T07:10:54;21.50;99.90
42201;DHT22;27869;51.442;7.540;2022-08-14T07:13:23;21.70;99.90
42201;DHT22;27869;51.442;7.540;2022-08-14T07:15:53;21.90;99.90
42201;DHT22;27869;51.442;7.540;2022-08-14T07:18:23;22.00;99.90
42201;DHT22;27869;51.442;7.540;2022-08-14T07:20:50;22.10;99.90
42201;DHT22;27869;51.442;7.540;2022-08-14T07:23:18;22.30;99.90
42201;DHT22;27869;51.442;7.540;2022-08-14T07:25:46;22.40;99.90
42201;DHT22;27869;51.442;7.540;2022-08-14T07:28:15;22.50;99.90
42201;DHT22;27869;51.442;7.540;2022-08-14T07:30:43;22.70;99.90
42201;DHT22;27869;51.442;7.540;2022-08-14T07:33:11;22.90;99.90
42201;DHT22;27869;51.442;7.540;2022-08-14T07:35:40;23.00;99.90
42201;DHT22;27869;51.442;7.540;2022-08-14T07:38:07;23.20;99.90
42201;DHT22;27869;51.442;7.540;2022-08-14T07:40:34;23.40;99.90
42201;DHT22;27869;51.442;7.540;2022-08-14T07:43:01;23.60;99.90
42201;DHT22;27869;51.442;7.540;2022-08-14T07:45:28;23.70;99.90
42201;DHT22;27869;51.442;7.540;2022-08-14T07:47:55;23.90;99.90
42201;DHT22;27869;51.442;7.540;2022-08-14T07:50:23;24.00;99.90
42201;DHT22;27869;51.442;7.540;2022-08-14T07:52:51;24.10;99.90
42201;DHT22;27869;51.442;7.540;2022-08-14T07:55:18;24.30;99.90
42201;DHT22;27869;51.442;7.540;2022-08-14T07:57:46;24.50;99.90
42201;DHT22;27869;51.442;7.540;2022-08-14T08:00:16;24.60;99.90
42201;DHT22;27869;51.442;7.540;2022-08-14T08:02:47;24.70;99.90
42201;DHT22;27869;51.442;7.540;2022-08-14T08:05:15;24.80;99.90
42201;DHT22;27869;51.442;7.540;2022-08-14T08:07:44;24.90;99.90
42201;DHT22;27869;51.442;7.540;2022-08-14T08:10:15;25.10;99.90
42201;DHT22;27869;51.442;7.540;2022-08-14T08:12:59;25.20;99.90
42201;DHT22;27869;51.442;7.540;2022-08-14T08:15:28;25.40;99.90
42201;DHT22;27869;51.442;7.540;2022-08-14T08:17:58;25.60;99.90
42201;DHT22;27869;51.442;7.540;2022-08-14T08:20:26;25.70;99.90
42201;DHT22;27869;51.442;7.540;2022-08-14T08:22:54;25.90;99.90
42201;DHT22;27869;51.442;7.540;2022-08-14T08:25:25;26.10;99.90
42201;DHT22;27869;51.442;7.540;2022-08-14T08:27:57;26.20;99.90
42201;DHT22;27869;51.442;7.540;2022-08-14T08:30:25;26.40;99.90
42201;DHT22;27869;51.442;7.540;2022-08-14T08:32:54;26.50;99.90
42201;DHT22;27869;51.442;7.540;2022-08-14T08:35:23;26.60;99.90
42201;DHT22;27869;51.442;7.540;2022-08-14T08:37:51;26.80;99.90
42201;DHT22;27869;51.442;7.540;2022-08-14T08:40:25;26.90;99.90
42201;DHT22;27869;51.442;7.540;2022-08-14T08:42:52;27.10;99.90
42201;DHT22;27869;51.442;7.540;2022-08-14T08:45:20;27.30;99.90
42201;DHT22;27869;51.442;7.540;2022-08-14T08:47:49;27.40;99.70
42201;DHT22;27869;51.442;7.540;2022-08-14T08:50:21;27.50;99.60
42201;DHT22;27869;51.442;7.540;2022-08-14T08:52:51;27.70;98.40
42201;DHT22;27869;51.442;7.540;2022-08-14T08:55:31;27.80;98.30
42201;DHT22;27869;51.442;7.540;2022-08-14T08:58:01;27.90;97.10
42201;DHT22;27869;51.442;7.540;2022-08-14T09:00:30;28.00;97.70
42201;DHT22;27869;51.442;7.540;2022-08-14T09:03:01;28.10;97.00
42201;DHT22;27869;51.442;7.540;2022-08-14T09:05:30;28.20;96.90
42201;DHT22;27869;51.442;7.540;2022-08-14T09:08:12;28.30;96.70
42201;DHT22;27869;51.442;7.540;2022-08-14T09:10:41;28.50;94.00
42201;DHT22;27869;51.442;7.540;2022-08-14T09:13:08;28.60;95.60
42201;DHT22;27869;51.442;7.540;2022-08-14T09:15:39;28.70;95.30
42201;DHT22;27869;51.442;7.540;2022-08-14T09:18:07;28.90;95.10
42201;DHT22;27869;51.442;7.540;2022-08-14T09:20:37;29.00;94.30
42201;DHT22;27869;51.442;7.540;2022-08-14T09:23:04;29.20;92.80
42201;DHT22;27869;51.442;7.540;2022-08-14T09:25:31;29.40;93.20
42201;DHT22;27869;51.442;7.540;2022-08-14T09:28:01;29.50;92.90
42201;DHT22;27869;51.442;7.540;2022-08-14T09:30:28;29.60;92.00
42201;DHT22;27869;51.442;7.540;2022-08-14T09:33:05;29.70;91.80
42201;DHT22;27869;51.442;7.540;2022-08-14T09:35:45;29.80;87.10
42201;DHT22;27869;51.442;7.540;2022-08-14T09:38:23;29.90;90.10
42201;DHT22;27869;51.442;7.540;2022-08-14T09:40:58;30.10;88.80
42201;DHT22;27869;51.442;7.540;2022-08-14T09:43:32;30.10;86.30
42201;DHT22;27869;51.442;7.540;2022-08-14T09:45:59;30.20;86.10
42201;DHT22;27869;51.442;7.540;2022-08-14T09:48:26;30.40;87.20
42201;DHT22;27869;51.442;7.540;2022-08-14T09:50:54;30.50;84.50
42201;DHT22;27869;51.442;7.540;2022-08-14T09:53:38;30.60;83.40
42201;DHT22;27869;51.442;7.540;2022-08-14T09:56:08;30.70;78.10
42201;DHT22;27869;51.442;7.540;2022-08-14T09:58:39;30.80;81.60
42201;DHT22;27869;51.442;7.540;2022-08-14T10:01:10;30.80;80.20
42201;DHT22;27869;51.442;7.540;2022-08-14T10:03:46;30.90;79.10
42201;DHT22;27869;51.442;7.540;2022-08-14T10:06:17;31.00;78.30
42201;DHT22;27869;51.442;7.540;2022-08-14T10:08:47;31.20;77.00
42201;DHT22;27869;51.442;7.540;2022-08-14T10:11:18;31.30;76.30
42201;DHT22;27869;51.442;7.540;2022-08-14T10:13:48;31.40;76.20
42201;DHT22;27869;51.442;7.540;2022-08-14T10:16:19;31.50;74.90
42201;DHT22;27869;51.442;7.540;2022-08-14T10:18:48;31.70;75.70
42201;DHT22;27869;51.442;7.540;2022-08-14T10:21:17;31.90;75.10
42201;DHT22;27869;51.442;7.540;2022-08-14T10:23:46;32.10;75.00
42201;DHT22;27869;51.442;7.540;2022-08-14T10:26:18;32.20;73.70
42201;DHT22;27869;51.442;7.540;2022-08-14T10:28:49;32.30;73.20
42201;DHT22;27869;51.442;7.540;2022-08-14T10:31:18;32.30;71.60
42201;DHT22;27869;51.442;7.540;2022-08-14T10:33:57;32.40;71.60
42201;DHT22;27869;51.442;7.540;2022-08-14T10:36:29;32.40;70.20
42201;DHT22;27869;51.442;7.540;2022-08-14T10:38:59;32.50;69.90
42201;DHT22;27869;51.442;7.540;2022-08-14T10:41:38;32.60;70.30
42201;DHT22;27869;51.442;7.540;2022-08-14T10:44:10;32.60;68.40
42201;DHT22;27869;51.442;7.540;2022-08-14T10:46:40;32.70;69.00
42201;DHT22;27869;51.442;7.540;2022-08-14T10:49:16;32.80;68.50
42201;DHT22;27869;51.442;7.540;2022-08-14T10:51:54;32.90;66.30
42201;DHT22;27869;51.442;7.540;2022-08-14T10:54:31;32.90;66.40
42201;DHT22;27869;51.442;7.540;2022-08-14T10:57:18;32.90;65.10
42201;DHT22;27869;51.442;7.540;2022-08-14T10:59:52;33.00;66.20
42201;DHT22;27869;51.442;7.540;2022-08-14T11:02:25;33.00;67.50
42201;DHT22;27869;51.442;7.540;2022-08-14T11:05:05;33.20;66.80
42201;DHT22;27869;51.442;7.540;2022-08-14T11:07:34;33.30;65.10
42201;DHT22;27869;51.442;7.540;2022-08-14T11:10:06;33.40;66.00
42201;DHT22;27869;51.442;7.540;2022-08-14T11:12:45;33.50;65.30
42201;DHT22;27869;51.442;7.540;2022-08-14T11:15:15;33.60;63.60
42201;DHT22;27869;51.442;7.540;2022-08-14T11:17:43;33.70;64.70
42201;DHT22;27869;51.442;7.540;2022-08-14T11:20:13;33.80;65.30
42201;DHT22;27869;51.442;7.540;2022-08-14T11:22:40;34.00;63.70
42201;DHT22;27869;51.442;7.540;2022-08-14T11:25:11;34.00;63.30
42201;DHT22;27869;51.442;7.540;2022-08-14T11:27:39;34.20;62.70
42201;DHT22;27869;51.442;7.540;2022-08-14T11:30:09;34.30;62.50
42201;DHT22;27869;51.442;7.540;2022-08-14T11:32:39;34.30;61.20
42201;DHT22;27869;51.442;7.540;2022-08-14T11:35:11;34.20;60.50
42201;DHT22;27869;51.442;7.540;2022-08-14T11:37:48;34.20;61.50
42201;DHT22;27869;51.442;7.540;2022-08-14T11:40:15;34.20;60.20
42201;DHT22;27869;51.442;7.540;2022-08-14T11:42:45;34.30;61.40
42201;DHT22;27869;51.442;7.540;2022-08-14T11:45:13;34.30;60.20
42201;DHT22;27869;51.442;7.540;2022-08-14T11:47:42;34.20;60.10
42201;DHT22;27869;51.442;7.540;2022-08-14T11:50:14;34.10;59.80
42201;DHT22;27869;51.442;7.540;2022-08-14T11:52:42;34.10;60.20
42201;DHT22;27869;51.442;7.540;2022-08-14T11:55:11;34.20;60.70
42201;DHT22;27869;51.442;7.540;2022-08-14T11:57:39;34.20;60.10
42201;DHT22;27869;51.442;7.540;2022-08-14T12:00:08;34.10;59.70
42201;DHT22;27869;51.442;7.540;2022-08-14T12:02:36;34.10;59.90
42201;DHT22;27869;51.442;7.540;2022-08-14T12:05:05;34.00;59.40
42201;DHT22;27869;51.442;7.540;2022-08-14T12:07:32;34.00;59.80
42201;DHT22;27869;51.442;7.540;2022-08-14T12:09:59;33.90;59.40
42201;DHT22;27869;51.442;7.540;2022-08-14T12:12:27;33.80;60.70
42201;DHT22;27869;51.442;7.540;2022-08-14T12:14:58;33.70;60.20
42201;DHT22;27869;51.442;7.540;2022-08-14T12:17:26;33.70;59.40
42201;DHT22;27869;51.442;7.540;2022-08-14T12:19:55;33.60;59.50
42201;DHT22;27869;51.442;7.540;2022-08-14T12:22:36;33.50;59.60
42201;DHT22;27869;51.442;7.540;2022-08-14T12:25:05;33.50;60.90
42201;DHT22;27869;51.442;7.540;2022-08-14T12:27:37;33.60;60.40
42201;DHT22;27869;51.442;7.540;2022-08-14T12:30:05;33.50;58.50
42201;DHT22;27869;51.442;7.540;2022-08-14T12:32:40;33.60;58.60
42201;DHT22;27869;51.442;7.540;2022-08-14T12:35:08;33.50;59.50
42201;DHT22;27869;51.442;7.540;2022-08-14T12:37:37;33.50;59.00
42201;DHT22;27869;51.442;7.540;2022-08-14T12:40:12;33.50;58.90
42201;DHT22;27869;51.442;7.540;2022-08-14T12:42:39;33.40;58.80
42201;DHT22;27869;51.442;7.540;2022-08-14T12:45:09;33.30;58.40
42201;DHT22;27869;51.442;7.540;2022-08-14T12:47:38;33.30;59.40
42201;DHT22;27869;51.442;7.540;2022-08-14T12:50:06;33.30;59.20
42201;DHT22;27869;51.442;7.540;2022-08-14T12:52:35;33.30;58.90
42201;DHT22;27869;51.442;7.540;2022-08-14T12:55:08;33.30;58.70
42201;DHT22;27869;51.442;7.540;2022-08-14T12:57:38;33.20;58.90
42201;DHT22;27869;51.442;7.540;2022-08-14T13:00:09;33.30;58.90
42201;DHT22;27869;51.442;7.540;2022-08-14T13:02:38;33.20;58.60
42201;DHT22;27869;51.442;7.540;2022-08-14T13:05:07;33.20;58.90
42201;DHT22;27869;51.442;7.540;2022-08-14T13:07:36;33.10;58.60
42201;DHT22;27869;51.442;7.540;2022-08-14T13:10:07;33.10;59.00
42201;DHT22;27869;51.442;7.540;2022-08-14T13:12:36;32.90;59.20
42201;DHT22;27869;51.442;7.540;2022-08-14T13:15:05;32.80;59.50
42201;DHT22;27869;51.442;7.540;2022-08-14T13:17:38;32.70;59.30
42201;DHT22;27869;51.442;7.540;2022-08-14T13:20:06;32.60;58.80
42201;DHT22;27869;51.442;7.540;2022-08-14T13:22:36;32.60;58.80
42201;DHT22;27869;51.442;7.540;2022-08-14T13:25:06;32.50;58.80
42201;DHT22;27869;51.442;7.540;2022-08-14T13:27:33;32.50;58.80
42201;DHT22;27869;51.442;7.540;2022-08-14T13:30:03;32.40;59.00
42201;DHT22;27869;51.442;7.540;2022-08-14T13:32:32;32.30;59.20
42201;DHT22;27869;51.442;7.540;2022-08-14T13:35:00;32.20;59.10
42201;DHT22;27869;51.442;7.540;2022-08-14T13:37:27;32.20;59.10
42201;DHT22;27869;51.442;7.540;2022-08-14T13:39:54;32.10;58.90
42201;DHT22;27869;51.442;7.540;2022-08-14T13:42:23;32.10;59.10
42201;DHT22;27869;51.442;7.540;2022-08-14T13:44:53;32.10;59.10
42201;DHT22;27869;51.442;7.540;2022-08-14T13:47:21;32.10;59.50
42201;DHT22;27869;51.442;7.540;2022-08-14T13:49:49;32.20;59.10
42201;DHT22;27869;51.442;7.540;2022-08-14T13:52:17;32.10;59.30
42201;DHT22;27869;51.442;7.540;2022-08-14T13:54:46;32.10;59.20
42201;DHT22;27869;51.442;7.540;2022-08-14T13:57:14;32.00;59.30
42201;DHT22;27869;51.442;7.540;2022-08-14T13:59:45;31.90;59.20
42201;DHT22;27869;51.442;7.540;2022-08-14T14:02:14;31.80;59.40
42201;DHT22;27869;51.442;7.540;2022-08-14T14:04:44;31.60;59.30
42201;DHT22;27869;51.442;7.540;2022-08-14T14:07:13;31.60;59.60
42201;DHT22;27869;51.442;7.540;2022-08-14T14:09:43;31.50;59.40
42201;DHT22;27869;51.442;7.540;2022-08-14T14:12:10;31.50;59.30
42201;DHT22;27869;51.442;7.540;2022-08-14T14:14:39;31.40;59.70
42201;DHT22;27869;51.442;7.540;2022-08-14T14:17:10;31.40;59.90
42201;DHT22;27869;51.442;7.540;2022-08-14T14:19:40;31.40;59.80
42201;DHT22;27869;51.442;7.540;2022-08-14T14:22:07;31.40;59.80
42201;DHT22;27869;51.442;7.540;2022-08-14T14:24:34;31.40;61.80
42201;DHT22;27869;51.442;7.540;2022-08-14T14:27:04;31.40;60.80
42201;DHT22;27869;51.442;7.540;2022-08-14T14:29:35;31.30;60.80
42201;DHT22;27869;51.442;7.540;2022-08-14T14:32:02;31.30;60.80
42201;DHT22;27869;51.442;7.540;2022-08-14T14:34:31;31.40;60.80
42201;DHT22;27869;51.442;7.540;2022-08-14T14:36:59;31.40;60.20
42201;DHT22;27869;51.442;7.540;2022-08-14T14:39:30;31.50;60.30
42201;DHT22;27869;51.442;7.540;2022-08-14T14:41:58;31.50;59.80
42201;DHT22;27869;51.442;7.540;2022-08-14T14:44:31;31.50;59.30
42201;DHT22;27869;51.442;7.540;2022-08-14T14:46:59;31.50;58.90
42201;DHT22;27869;51.442;7.540;2022-08-14T14:49:27;31.50;58.60
42201;DHT22;27869;51.442;7.540;2022-08-14T14:51:56;31.50;58.70
42201;DHT22;27869;51.442;7.540;2022-08-14T14:54:23;31.60;59.00
42201;DHT22;27869;51.442;7.540;2022-08-14T14:56:50;31.60;59.00
42201;DHT22;27869;51.442;7.540;2022-08-14T14:59:18;31.60;58.90
42201;DHT22;27869;51.442;7.540;2022-08-14T15:01:48;31.70;59.10
42201;DHT22;27869;51.442;7.540;2022-08-14T15:04:15;31.60;58.80
42201;DHT22;27869;51.442;7.540;2022-08-14T15:06:42;31.60;58.80
42201;DHT22;27869;51.442;7.540;2022-08-14T15:09:11;31.60;58.70
42201;DHT22;27869;51.442;7.540;2022-08-14T15:11:38;31.60;58.90
42201;DHT22;27869;51.442;7.540;2022-08-14T15:14:06;31.70;58.70
42201;DHT22;27869;51.442;7.540;2022-08-14T15:16:33;31.70;58.60
42201;DHT22;27869;51.442;7.540;2022-08-14T15:19:00;31.70;58.50
42201;DHT22;27869;51.442;7.540;2022-08-14T15:21:27;31.70;58.80
42201;DHT22;27869;51.442;7.540;2022-08-14T15:23:54;31.70;58.90
42201;DHT22;27869;51.442;7.540;2022-08-14T15:26:22;31.70;58.70
42201;DHT22;27869;51.442;7.540;2022-08-14T15:28:49;31.70;58.00
42201;DHT22;27869;51.442;7.540;2022-08-14T15:31:17;31.70;58.20
42201;DHT22;27869;51.442;7.540;2022-08-14T15:33:44;31.70;58.30
42201;DHT22;27869;51.442;7.540;2022-08-14T15:36:28;31.70;58.10
42201;DHT22;27869;51.442;7.540;2022-08-14T15:38:57;31.70;58.00
42201;DHT22;27869;51.442;7.540;2022-08-14T15:41:26;31.70;58.20
42201;DHT22;27869;51.442;7.540;2022-08-14T15:43:53;31.70;58.00